Smithville, AR (72466)

8:50 AM CDT on September 22, 2014 (GMT -0500)
Rural Ravenden Springs | Change Station
CLOSE
Current Station
Personal Weather Station
Location: Ravenden Springs, AR
Elevation: 680 ft
Nearby Weather Stations

Elev 680 ft 36.31 °N, 91.20 °W | Updated 4 seconds ago

Clear
Clear
61.0 °F
Feels Like 61.0 °F
N
0.0
Wind Variable Wind from North
Gusts 0.0 mph

Today
High -- | Low -- °F
--% Chance of Precip.
Yesterday
High -- | Low -- °F
Precip. -- in
6:53 AM 7:01 PM
Waning Crescent, 3% visible
Pressure 30.24 in
Visibility 10.0 miles
Clouds Clear
Dew Point 44 °F
Humidity 53%
Rainfall 0.00 in
Snow Depth Not available.
UV 1 out of 12
Pollen 10.20 out of 12
Air Quality Not available.
Flu Activity Not available.
METAR KARG 221335Z AUTO 35008KT 10SM CLR 16/00 A3024 RMK AO1

More Conditions Fewer Conditions

Pressure 30.24 in
Visibility 10.0 miles
Clouds Clear
Dew Point 44 °F
Humidity 53%
Rainfall 0.00 in
Snow Depth Not available.
UV 1 out of 12
Pollen 10.20 out of 12
Air Quality Not available.
Flu Activity Not available.
METAR KARG 221335Z AUTO 35008KT 10SM CLR 16/00 A3024 RMK AO1

More Conditions Fewer Conditions

10-Day Weather Forecast

Almanac

Astronomy

Sep. 22, 2014 Rise Set
Actual Time 6:53 AM CDT 7:01 PM CDT
Civil Twilight 6:27 AM CDT 7:27 PM CDT
Nautical Twilight 5:57 AM CDT 7:57 PM CDT
Astronomical Twilight 5:27 AM CDT 8:27 PM CDT
Moon 5:23 AM CDT 6:08 PM CDT
Length of Visible Light 13h 00m
Length of Day
12h 08m
Tomorrow will be 2m 17s shorter.
Waning Crescent, 3% of the Moon is Illuminated
Today
Waning Crescent
Sep 24
New
Oct 1
First Quarter
Oct 8
Full
Oct 15
Last Quarter

Today's Extremes

State Highs State Lows

Community

WunderPhotos

Upload Photos

1,755,436 photos uploaded!

WunderBlogs® & News

By Dr. Jeff Masters
Director of Meteorology, Weather Underground
By Kari Strenfel
Meteorologist, Weather Underground
By Christopher C. Burt
Weather Historian, Weather Underground
September 22, 2014
September 22, 2014
September 22, 2014

Nearby

Snow Depth

Station Depth Elevation
No new snow has been reported.

Earthquake Activity

City Distance Mag. Time & Date
No recent earthquake activity has been reported nearby.
Minimum magnitude displayed is 2.5.

Coastal Water Temperatures

Place Temperature
No Stations Reporting

Nearby Weather Stations